createdAt,value
2022-12-11T00:02:14.827Z,99518.70
2022-12-11T00:07:16.945Z,99516.45
2022-12-11T00:12:18.489Z,99510.40
2022-12-11T00:17:19.587Z,99503.44
2022-12-11T00:22:20.530Z,99501.80
2022-12-11T00:27:21.680Z,99498.45
2022-12-11T00:32:22.943Z,99497.29
2022-12-11T00:37:23.921Z,99498.89
2022-12-11T00:42:25.331Z,99508.20
2022-12-11T00:47:26.424Z,99505.33
2022-12-11T00:52:27.549Z,99502.48
2022-12-11T00:57:28.557Z,99501.65
2022-12-11T01:02:29.690Z,99502.84
2022-12-11T01:07:30.772Z,99506.95
2022-12-11T01:12:31.737Z,99500.98
2022-12-11T01:17:32.742Z,99492.47
2022-12-11T01:22:33.688Z,99490.67
2022-12-11T01:27:36.019Z,99491.40
2022-12-11T01:32:37.600Z,99481.96
2022-12-11T01:37:38.558Z,99477.86
2022-12-11T01:42:39.687Z,99481.35
2022-12-11T01:47:40.589Z,99490.65
2022-12-11T01:52:45.372Z,99491.41
2022-12-11T01:57:49.258Z,99491.73
2022-12-11T02:02:50.309Z,99482.88
2022-12-11T02:07:58.141Z,99476.44
2022-12-11T02:13:27.577Z,99468.17
2022-12-11T02:18:50.480Z,99470.65
2022-12-11T02:24:11.031Z,99473.16
2022-12-11T02:29:20.107Z,99471.21
2022-12-11T02:34:43.504Z,99468.29
2022-12-11T02:39:47.624Z,99479.08
2022-12-11T02:44:52.167Z,99474.46
2022-12-11T02:49:55.344Z,99459.93
2022-12-11T02:54:58.703Z,99445.83
2022-12-11T02:59:59.783Z,99445.73
2022-12-11T03:05:00.961Z,99452.65
2022-12-11T03:10:06.304Z,99442.49
2022-12-11T03:15:13.334Z,99439.69
2022-12-11T03:20:33.339Z,99437.03
2022-12-11T03:25:52.432Z,99435.31
2022-12-11T03:30:55.743Z,99435.21
2022-12-11T03:36:02.723Z,99427.63
2022-12-11T03:41:06.239Z,99427.48
2022-12-11T03:46:09.208Z,99424.66
2022-12-11T03:51:10.316Z,99420.38
2022-12-11T03:56:15.064Z,99419.64
2022-12-11T04:01:16.300Z,99408.52
2022-12-11T04:06:17.711Z,99410.29
2022-12-11T04:11:37.790Z,99408.86
2022-12-11T04:16:38.845Z,99412.26
2022-12-11T04:21:58.929Z,99408.77
2022-12-11T04:27:00.534Z,99407.80
2022-12-11T04:32:01.600Z,99401.16
2022-12-11T04:37:02.987Z,99400.99
2022-12-11T04:42:04.272Z,99411.04
2022-12-11T04:47:05.228Z,99410.54
2022-12-11T04:52:06.265Z,99408.63
2022-12-11T04:57:07.251Z,99412.89
2022-12-11T05:02:08.373Z,99411.16
2022-12-11T05:07:09.819Z,99405.69
2022-12-11T05:12:10.847Z,99401.67
2022-12-11T05:17:12.761Z,99393.30
2022-12-11T05:22:14.639Z,99398.04
2022-12-11T05:27:15.717Z,99395.45
2022-12-11T05:32:17.073Z,99391.68
2022-12-11T05:37:18.086Z,99391.77
2022-12-11T05:42:22.789Z,99390.84
2022-12-11T05:47:26.495Z,99391.30
2022-12-11T05:52:27.697Z,99393.32
2022-12-11T05:57:28.868Z,99399.19
2022-12-11T06:02:29.896Z,99404.85
2022-12-11T06:07:31.201Z,99404.02
2022-12-11T06:12:32.191Z,99404.41
2022-12-11T06:17:33.434Z,99399.11
2022-12-11T06:22:34.688Z,99390.94
2022-12-11T06:27:35.575Z,99389.02
2022-12-11T06:32:36.545Z,99392.56
2022-12-11T06:37:39.642Z,99398.00
2022-12-11T06:42:41.082Z,99389.70
2022-12-11T06:47:42.910Z,99386.73
2022-12-11T06:52:43.904Z,99390.38
2022-12-11T06:57:44.847Z,99390.77
2022-12-11T07:02:46.048Z,99388.31
2022-12-11T07:07:47.311Z,99393.02
2022-12-11T07:12:48.695Z,99386.80
2022-12-11T07:17:49.667Z,99383.34
2022-12-11T07:22:50.645Z,99373.98
2022-12-11T07:27:51.607Z,99374.58
2022-12-11T07:32:52.621Z,99368.91
2022-12-11T07:37:53.684Z,99363.14
2022-12-11T07:42:54.689Z,99360.40
2022-12-11T07:47:55.700Z,99359.52
2022-12-11T07:52:56.697Z,99365.14
2022-12-11T07:57:58.092Z,99366.16
2022-12-11T08:02:59.148Z,99364.92
2022-12-11T08:08:00.339Z,99371.54
2022-12-11T08:13:01.631Z,99370.71
2022-12-11T08:18:03.242Z,99367.08
2022-12-11T08:23:04.782Z,99367.45
2022-12-11T08:28:05.877Z,99368.75
2022-12-11T08:33:06.969Z,99367.52
2022-12-11T08:38:07.998Z,99359.09
2022-12-11T08:43:08.948Z,99355.45
2022-12-11T08:48:10.030Z,99352.98
2022-12-11T08:53:11.261Z,99346.77
2022-12-11T08:58:12.261Z,99337.68
2022-12-11T09:03:13.645Z,99334.92
2022-12-11T09:08:14.815Z,99336.63
2022-12-11T09:13:15.945Z,99337.35
2022-12-11T09:18:17.375Z,99334.05
2022-12-11T09:23:18.382Z,99329.21
2022-12-11T09:28:19.850Z,99321.95
2022-12-11T09:33:20.905Z,99312.75
2022-12-11T09:38:21.999Z,99301.44
2022-12-11T09:43:47.994Z,99289.75
2022-12-11T09:48:52.699Z,99280.89
2022-12-11T09:53:59.120Z,99272.05
2022-12-11T09:59:00.848Z,99268.25
2022-12-11T10:04:23.942Z,99269.98
2022-12-11T10:09:39.157Z,99263.17
2022-12-11T10:15:10.643Z,99259.84
2022-12-11T10:20:24.088Z,99248.65
2022-12-11T10:25:28.227Z,99246.82
2022-12-11T10:30:37.020Z,99241.65
2022-12-11T10:35:47.149Z,99236.98
2022-12-11T10:40:57.172Z,99232.84
2022-12-11T10:45:58.362Z,99221.82
2022-12-11T10:51:03.646Z,99235.95
2022-12-11T10:56:05.510Z,99227.22
2022-12-11T11:01:10.171Z,99221.20
2022-12-11T11:06:19.352Z,99213.73
2022-12-11T11:11:27.703Z,99208.38
2022-12-11T11:16:29.409Z,99194.36
2022-12-11T11:21:32.144Z,99186.48
2022-12-11T11:27:04.317Z,99183.31
2022-12-11T11:31:54.836Z,99182.26
2022-12-11T11:37:00.183Z,99176.55
2022-12-11T11:42:07.876Z,99178.37
2022-12-11T11:47:33.393Z,99178.41
2022-12-11T11:52:56.498Z,99167.69
2022-12-11T11:58:06.651Z,99161.60
2022-12-11T12:03:13.135Z,99158.61
2022-12-11T12:08:51.806Z,99161.41
2022-12-11T12:20:20.699Z,99149.63
2022-12-11T12:25:40.400Z,99140.70
2022-12-11T12:31:24.570Z,99138.89
2022-12-11T12:36:44.538Z,99132.44
2022-12-11T12:42:23.148Z,99123.70
2022-12-11T12:47:27.538Z,99116.18
2022-12-11T12:52:33.547Z,99112.73
2022-12-11T12:57:36.338Z,99109.41
2022-12-11T13:02:47.759Z,99101.84
2022-12-11T13:07:54.578Z,99098.26
2022-12-11T13:12:56.431Z,99095.59
2022-12-11T13:17:59.060Z,99087.73
2022-12-11T13:23:07.392Z,99088.32
2022-12-11T13:28:21.289Z,99088.69
2022-12-11T13:33:23.532Z,99086.66
2022-12-11T13:38:24.870Z,99080.64
2022-12-11T13:43:29.173Z,99078.54
2022-12-11T13:48:56.403Z,99075.70
2022-12-11T13:54:17.927Z,99067.92
2022-12-11T13:59:23.412Z,99070.23
2022-12-11T14:04:27.273Z,99064.00
2022-12-11T14:09:28.781Z,99056.37
2022-12-11T14:14:40.711Z,99051.35
2022-12-11T14:19:46.935Z,99049.75
2022-12-11T14:24:53.724Z,99040.14
2022-12-11T14:29:55.714Z,99032.60
2022-12-11T14:34:57.992Z,99025.80
2022-12-11T14:40:09.290Z,99020.29
2022-12-11T14:45:22.215Z,99018.09
2022-12-11T14:50:34.314Z,99013.42
2022-12-11T14:55:37.579Z,99004.95
2022-12-11T15:00:38.584Z,99004.33
2022-12-11T15:05:59.214Z,98999.95
2022-12-11T15:11:07.771Z,98995.41
2022-12-11T15:16:13.554Z,98995.54
2022-12-11T15:21:15.936Z,98995.27
2022-12-11T15:26:18.213Z,98990.61
2022-12-11T15:31:24.487Z,98985.52
2022-12-11T15:36:30.029Z,98983.50
2022-12-11T15:41:33.864Z,98979.57
2022-12-11T15:46:35.851Z,98975.90
2022-12-11T15:51:42.640Z,98974.15
2022-12-11T15:56:44.221Z,98973.21
2022-12-11T16:01:45.333Z,98971.17
2022-12-11T16:06:46.537Z,98964.54
2022-12-11T16:11:47.570Z,98963.14
2022-12-11T16:16:48.679Z,98960.79
2022-12-11T16:21:51.430Z,98955.23
2022-12-11T16:26:52.533Z,98952.67
2022-12-11T16:31:53.615Z,98948.90
2022-12-11T16:36:57.845Z,98937.86
2022-12-11T16:41:58.840Z,98936.23
2022-12-11T16:46:59.939Z,98935.94
2022-12-11T16:52:00.965Z,98937.55
2022-12-11T16:57:02.014Z,98941.16
2022-12-11T17:02:03.225Z,98931.33
2022-12-11T17:07:04.386Z,98921.55
2022-12-11T17:12:05.848Z,98923.84
2022-12-11T17:17:08.469Z,98922.20
2022-12-11T17:22:09.492Z,98923.72
2022-12-11T17:27:13.507Z,98923.33
2022-12-11T17:32:15.973Z,98922.33
2022-12-11T17:37:17.843Z,98924.70
2022-12-11T17:42:19.180Z,98926.52
2022-12-11T17:47:20.528Z,98921.55
2022-12-11T17:52:21.654Z,98919.69
2022-12-11T17:57:23.731Z,98917.42
2022-12-11T18:02:25.171Z,98909.36
2022-12-11T18:07:26.202Z,98909.09
2022-12-11T18:12:27.276Z,98908.31
2022-12-11T18:17:28.374Z,98904.73
2022-12-11T18:22:29.386Z,98904.84
2022-12-11T18:27:30.685Z,98900.11
2022-12-11T18:32:31.621Z,98899.54
2022-12-11T18:37:33.811Z,98902.48
2022-12-11T18:42:35.208Z,98905.10
2022-12-11T18:47:36.812Z,98893.98
2022-12-11T18:52:37.859Z,98896.45
2022-12-11T18:57:38.928Z,98895.01
2022-12-11T19:02:39.987Z,98896.13
2022-12-11T19:07:41.286Z,98896.13
2022-12-11T19:12:42.495Z,98892.02
2022-12-11T19:17:44.162Z,98886.89
2022-12-11T19:22:45.183Z,98878.96
2022-12-11T19:27:46.493Z,98880.65
2022-12-11T19:32:47.685Z,98877.09
2022-12-11T19:37:48.765Z,98874.58
2022-12-11T19:42:49.803Z,98874.02
2022-12-11T19:47:51.264Z,98865.41
2022-12-11T19:52:52.334Z,98858.55
2022-12-11T19:57:54.251Z,98858.23
2022-12-11T20:02:55.265Z,98865.27
2022-12-11T20:08:09.659Z,98865.80
2022-12-11T20:13:20.895Z,98859.41
2022-12-11T20:18:21.870Z,98858.02
2022-12-11T20:23:22.865Z,98850.64
2022-12-11T20:28:24.594Z,98843.23
2022-12-11T20:33:25.698Z,98847.96
2022-12-11T20:38:32.795Z,98842.63
2022-12-11T20:43:36.260Z,98835.50
2022-12-11T20:48:38.983Z,98826.65
2022-12-11T20:53:41.627Z,98825.77
2022-12-11T20:58:43.914Z,98824.52
2022-12-11T21:03:46.024Z,98819.52
2022-12-11T21:08:47.125Z,98819.64
2022-12-11T21:13:48.765Z,98816.23
2022-12-11T21:18:50.514Z,98804.29
2022-12-11T21:23:51.793Z,98796.94
2022-12-11T21:28:53.082Z,98795.64
2022-12-11T21:33:54.156Z,98799.00
2022-12-11T21:38:57.159Z,98785.63
2022-12-11T21:49:19.961Z,98764.80
2022-12-11T21:54:21.015Z,98759.78
2022-12-11T21:59:22.055Z,98754.75
2022-12-11T22:04:24.496Z,98748.09
2022-12-11T22:09:25.509Z,98736.84
2022-12-11T22:14:26.554Z,98730.92
2022-12-11T22:19:32.449Z,98732.77
2022-12-11T22:24:34.384Z,98732.58
2022-12-11T22:29:36.594Z,98734.34
2022-12-11T22:34:40.693Z,98734.77
2022-12-11T22:39:41.687Z,98729.30
2022-12-11T22:44:42.654Z,98723.30
2022-12-11T22:49:43.658Z,98720.29
2022-12-11T22:54:45.263Z,98716.00
2022-12-11T22:59:46.606Z,98715.98
2022-12-11T23:04:47.684Z,98715.73
2022-12-11T23:09:48.703Z,98713.22
2022-12-11T23:14:50.315Z,98707.59
2022-12-11T23:19:51.309Z,98703.33
2022-12-11T23:24:52.593Z,98704.21
2022-12-11T23:29:55.906Z,98703.26
2022-12-11T23:34:56.948Z,98703.27
2022-12-11T23:39:57.865Z,98703.34
2022-12-11T23:44:58.884Z,98699.33
2022-12-11T23:50:00.084Z,98704.84
2022-12-11T23:55:01.036Z,98705.41
